sensor_id;sensor_type;location;lat;lon;timestamp;P1;durP1;ratioP1;P2;durP2;ratioP2
63959;SDS011;50136;51.374;0.096;2023-07-29T00:08:57;4.72;;;1.42;;
63959;SDS011;50136;51.374;0.096;2023-07-29T00:19:00;4.90;;;1.60;;
63959;SDS011;50136;51.374;0.096;2023-07-29T00:29:03;2.97;;;1.25;;
63959;SDS011;50136;51.374;0.096;2023-07-29T00:39:07;3.63;;;1.10;;
63959;SDS011;50136;51.374;0.096;2023-07-29T00:49:09;4.30;;;1.50;;
63959;SDS011;50136;51.374;0.096;2023-07-29T00:59:12;2.78;;;1.77;;
63959;SDS011;50136;51.374;0.096;2023-07-29T01:09:17;5.97;;;2.60;;
63959;SDS011;50136;51.374;0.096;2023-07-29T01:19:33;3.17;;;2.22;;
63959;SDS011;50136;51.374;0.096;2023-07-29T01:29:57;4.75;;;2.35;;
63959;SDS011;50136;51.374;0.096;2023-07-29T01:40:00;5.72;;;2.35;;
63959;SDS011;50136;51.374;0.096;2023-07-29T01:50:04;6.68;;;2.42;;
63959;SDS011;50136;51.374;0.096;2023-07-29T02:00:07;4.28;;;2.72;;
63959;SDS011;50136;51.374;0.096;2023-07-29T02:10:11;7.30;;;3.08;;
63959;SDS011;50136;51.374;0.096;2023-07-29T02:20:13;6.40;;;3.67;;
63959;SDS011;50136;51.374;0.096;2023-07-29T02:30:17;7.00;;;2.80;;
63959;SDS011;50136;51.374;0.096;2023-07-29T02:40:19;5.80;;;3.83;;
63959;SDS011;50136;51.374;0.096;2023-07-29T02:50:22;6.88;;;3.38;;
63959;SDS011;50136;51.374;0.096;2023-07-29T03:00:24;5.35;;;3.10;;
63959;SDS011;50136;51.374;0.096;2023-07-29T03:10:28;5.40;;;3.05;;
63959;SDS011;50136;51.374;0.096;2023-07-29T03:20:30;5.93;;;3.00;;
63959;SDS011;50136;51.374;0.096;2023-07-29T03:30:33;7.50;;;2.75;;
63959;SDS011;50136;51.374;0.096;2023-07-29T03:40:35;9.45;;;3.08;;
63959;SDS011;50136;51.374;0.096;2023-07-29T03:50:38;9.18;;;3.72;;
63959;SDS011;50136;51.374;0.096;2023-07-29T04:00:40;4.97;;;2.88;;
63959;SDS011;50136;51.374;0.096;2023-07-29T04:10:44;10.63;;;4.22;;
63959;SDS011;50136;51.374;0.096;2023-07-29T04:20:46;10.02;;;3.83;;
63959;SDS011;50136;51.374;0.096;2023-07-29T04:30:49;10.13;;;4.55;;
63959;SDS011;50136;51.374;0.096;2023-07-29T04:40:51;12.00;;;3.92;;
63959;SDS011;50136;51.374;0.096;2023-07-29T04:50:54;8.95;;;3.83;;
63959;SDS011;50136;51.374;0.096;2023-07-29T05:00:56;11.80;;;3.65;;
63959;SDS011;50136;51.374;0.096;2023-07-29T05:11:00;8.10;;;3.05;;
63959;SDS011;50136;51.374;0.096;2023-07-29T05:21:02;11.93;;;4.07;;
63959;SDS011;50136;51.374;0.096;2023-07-29T05:31:06;9.07;;;3.60;;
63959;SDS011;50136;51.374;0.096;2023-07-29T05:41:08;10.02;;;4.07;;
63959;SDS011;50136;51.374;0.096;2023-07-29T05:51:11;5.82;;;3.80;;
63959;SDS011;50136;51.374;0.096;2023-07-29T06:01:13;7.78;;;4.03;;
63959;SDS011;50136;51.374;0.096;2023-07-29T06:11:16;8.00;;;3.90;;
63959;SDS011;50136;51.374;0.096;2023-07-29T06:21:18;9.82;;;3.22;;
63959;SDS011;50136;51.374;0.096;2023-07-29T06:31:22;5.13;;;3.13;;
63959;SDS011;50136;51.374;0.096;2023-07-29T06:41:24;4.10;;;2.47;;
63959;SDS011;50136;51.374;0.096;2023-07-29T06:51:27;5.20;;;2.00;;
63959;SDS011;50136;51.374;0.096;2023-07-29T07:01:29;3.55;;;2.10;;
63959;SDS011;50136;51.374;0.096;2023-07-29T07:11:33;10.95;;;2.42;;
63959;SDS011;50136;51.374;0.096;2023-07-29T07:21:35;6.20;;;2.83;;
63959;SDS011;50136;51.374;0.096;2023-07-29T07:31:38;5.55;;;2.60;;
63959;SDS011;50136;51.374;0.096;2023-07-29T07:41:40;3.67;;;2.63;;
63959;SDS011;50136;51.374;0.096;2023-07-29T07:51:44;3.28;;;1.83;;
63959;SDS011;50136;51.374;0.096;2023-07-29T08:01:46;6.53;;;2.08;;
63959;SDS011;50136;51.374;0.096;2023-07-29T08:11:50;8.13;;;2.35;;
63959;SDS011;50136;51.374;0.096;2023-07-29T08:21:52;5.20;;;1.60;;
63959;SDS011;50136;51.374;0.096;2023-07-29T08:31:55;4.90;;;1.80;;
63959;SDS011;50136;51.374;0.096;2023-07-29T08:41:59;6.80;;;2.15;;
63959;SDS011;50136;51.374;0.096;2023-07-29T08:52:06;3.10;;;1.48;;
63959;SDS011;50136;51.374;0.096;2023-07-29T09:02:08;4.35;;;1.83;;
63959;SDS011;50136;51.374;0.096;2023-07-29T09:12:12;3.80;;;1.23;;
63959;SDS011;50136;51.374;0.096;2023-07-29T09:22:17;2.95;;;1.00;;
63959;SDS011;50136;51.374;0.096;2023-07-29T09:32:21;7.57;;;1.50;;
63959;SDS011;50136;51.374;0.096;2023-07-29T09:42:24;4.40;;;1.48;;
63959;SDS011;50136;51.374;0.096;2023-07-29T09:52:27;3.97;;;1.50;;
63959;SDS011;50136;51.374;0.096;2023-07-29T10:02:30;6.57;;;2.05;;
63959;SDS011;50136;51.374;0.096;2023-07-29T10:12:34;6.00;;;2.70;;
63959;SDS011;50136;51.374;0.096;2023-07-29T10:22:37;4.80;;;1.73;;
63959;SDS011;50136;51.374;0.096;2023-07-29T10:32:43;3.50;;;1.88;;
63959;SDS011;50136;51.374;0.096;2023-07-29T10:42:59;7.15;;;1.77;;
63959;SDS011;50136;51.374;0.096;2023-07-29T10:53:03;4.27;;;1.90;;
63959;SDS011;50136;51.374;0.096;2023-07-29T11:03:06;5.68;;;1.98;;
63959;SDS011;50136;51.374;0.096;2023-07-29T11:13:10;4.72;;;1.90;;
63959;SDS011;50136;51.374;0.096;2023-07-29T11:33:18;3.75;;;1.67;;
63959;SDS011;50136;51.374;0.096;2023-07-29T11:43:23;3.58;;;1.90;;
63959;SDS011;50136;51.374;0.096;2023-07-29T11:53:29;9.80;;;2.15;;
63959;SDS011;50136;51.374;0.096;2023-07-29T12:03:32;6.43;;;2.30;;
63959;SDS011;50136;51.374;0.096;2023-07-29T12:13:37;3.63;;;1.77;;
63959;SDS011;50136;51.374;0.096;2023-07-29T12:23:39;5.15;;;1.95;;
63959;SDS011;50136;51.374;0.096;2023-07-29T12:33:42;8.30;;;2.63;;
63959;SDS011;50136;51.374;0.096;2023-07-29T12:43:44;4.20;;;2.58;;
63959;SDS011;50136;51.374;0.096;2023-07-29T12:53:48;6.75;;;2.40;;
63959;SDS011;50136;51.374;0.096;2023-07-29T13:04:01;8.63;;;1.70;;
63959;SDS011;50136;51.374;0.096;2023-07-29T13:14:14;4.15;;;2.00;;
63959;SDS011;50136;51.374;0.096;2023-07-29T13:35:20;5.32;;;2.00;;
63959;SDS011;50136;51.374;0.096;2023-07-29T13:45:22;6.88;;;2.28;;
63959;SDS011;50136;51.374;0.096;2023-07-29T13:55:35;7.72;;;2.20;;
63959;SDS011;50136;51.374;0.096;2023-07-29T14:05:45;8.80;;;2.80;;
63959;SDS011;50136;51.374;0.096;2023-07-29T14:15:49;4.72;;;2.20;;
63959;SDS011;50136;51.374;0.096;2023-07-29T14:25:54;7.32;;;1.95;;
63959;SDS011;50136;51.374;0.096;2023-07-29T14:35:57;5.53;;;1.75;;
63959;SDS011;50136;51.374;0.096;2023-07-29T14:46:00;5.15;;;1.33;;
63959;SDS011;50136;51.374;0.096;2023-07-29T14:56:04;5.55;;;1.60;;
63959;SDS011;50136;51.374;0.096;2023-07-29T15:06:06;6.40;;;1.30;;
63959;SDS011;50136;51.374;0.096;2023-07-29T15:16:13;4.57;;;1.50;;
63959;SDS011;50136;51.374;0.096;2023-07-29T15:26:15;5.35;;;1.70;;
63959;SDS011;50136;51.374;0.096;2023-07-29T15:36:19;4.90;;;2.35;;
63959;SDS011;50136;51.374;0.096;2023-07-29T15:46:36;5.20;;;1.95;;
63959;SDS011;50136;51.374;0.096;2023-07-29T16:19:05;8.50;;;2.40;;
63959;SDS011;50136;51.374;0.096;2023-07-29T16:29:07;7.18;;;2.10;;
63959;SDS011;50136;51.374;0.096;2023-07-29T16:39:11;8.23;;;2.25;;
63959;SDS011;50136;51.374;0.096;2023-07-29T17:10:35;12.43;;;3.13;;
63959;SDS011;50136;51.374;0.096;2023-07-29T17:20:37;9.40;;;2.30;;
63959;SDS011;50136;51.374;0.096;2023-07-29T17:41:15;14.95;;;3.17;;
63959;SDS011;50136;51.374;0.096;2023-07-29T17:51:55;9.90;;;2.65;;
63959;SDS011;50136;51.374;0.096;2023-07-29T18:01:58;14.77;;;5.03;;
63959;SDS011;50136;51.374;0.096;2023-07-29T18:12:01;11.60;;;3.28;;
63959;SDS011;50136;51.374;0.096;2023-07-29T18:55:20;13.93;;;3.50;;
63959;SDS011;50136;51.374;0.096;2023-07-29T19:05:32;8.95;;;3.60;;
63959;SDS011;50136;51.374;0.096;2023-07-29T19:26:13;12.43;;;4.93;;
63959;SDS011;50136;51.374;0.096;2023-07-29T19:36:20;23.10;;;4.72;;
63959;SDS011;50136;51.374;0.096;2023-07-29T19:57:48;20.20;;;11.00;;
63959;SDS011;50136;51.374;0.096;2023-07-29T20:07:50;8.65;;;4.05;;
63959;SDS011;50136;51.374;0.096;2023-07-29T20:17:54;19.42;;;4.25;;
63959;SDS011;50136;51.374;0.096;2023-07-29T20:27:56;22.58;;;5.32;;
63959;SDS011;50136;51.374;0.096;2023-07-29T20:38:00;20.08;;;7.30;;
63959;SDS011;50136;51.374;0.096;2023-07-29T20:48:02;12.68;;;5.40;;
63959;SDS011;50136;51.374;0.096;2023-07-29T20:58:05;13.82;;;4.15;;
63959;SDS011;50136;51.374;0.096;2023-07-29T21:08:07;16.27;;;5.03;;
63959;SDS011;50136;51.374;0.096;2023-07-29T21:18:11;17.17;;;4.85;;
63959;SDS011;50136;51.374;0.096;2023-07-29T21:28:13;20.00;;;4.38;;
63959;SDS011;50136;51.374;0.096;2023-07-29T21:38:16;15.43;;;4.25;;
63959;SDS011;50136;51.374;0.096;2023-07-29T21:48:28;23.95;;;6.75;;
63959;SDS011;50136;51.374;0.096;2023-07-29T22:09:02;17.33;;;3.88;;
63959;SDS011;50136;51.374;0.096;2023-07-29T22:19:06;10.48;;;4.20;;
63959;SDS011;50136;51.374;0.096;2023-07-29T22:29:08;18.42;;;4.90;;
63959;SDS011;50136;51.374;0.096;2023-07-29T22:39:11;20.20;;;3.25;;
63959;SDS011;50136;51.374;0.096;2023-07-29T22:49:20;18.65;;;3.83;;
63959;SDS011;50136;51.374;0.096;2023-07-29T22:59:23;20.67;;;4.43;;
63959;SDS011;50136;51.374;0.096;2023-07-29T23:09:25;20.50;;;5.20;;
63959;SDS011;50136;51.374;0.096;2023-07-29T23:19:29;17.10;;;3.45;;
63959;SDS011;50136;51.374;0.096;2023-07-29T23:29:31;20.42;;;3.53;;
63959;SDS011;50136;51.374;0.096;2023-07-29T23:39:34;11.27;;;2.20;;
63959;SDS011;50136;51.374;0.096;2023-07-29T23:50:02;11.80;;;2.92;;
